Time;durP1;ratioP1;P1;durP2;ratioP2;P2;SDS_P1;SDS_P2;PMS_P1;PMS_P2;Temp;Humidity;BMP_temperature;BMP_pressure;BME280_temperature;BME280_humidity;BME280_pressure;Samples;Min_cycle;Max_cycle;Signal;HPM_P1;HPM_P2
2022/04/23 00:00:33;;;;;;;7.35;4.20;;;;;;;6.46;78.32;100651.78;2064377;28;20289;-68
2022/04/23 00:01:38;;;;;;;9.18;4.07;;;;;;;6.43;77.92;100654.94;2056398;28;20305;-73
2022/04/23 00:02:43;;;;;;;14.45;4.72;;;;;;;6.42;78.36;100653.34;2056320;28;20294;-63
2022/04/23 00:03:45;;;;;;;10.80;4.43;;;;;;;6.39;78.09;100653.81;2064736;28;20297;-63
2022/04/23 00:04:54;;;;;;;10.90;4.85;;;;;;;6.39;78.24;100656.50;2064585;28;20277;-63
2022/04/23 00:05:59;;;;;;;8.13;3.92;;;;;;;6.38;78.55;100649.56;2056350;28;20286;-62
2022/04/23 00:07:01;;;;;;;8.45;4.07;;;;;;;6.42;78.66;100656.00;2048731;28;20307;-62
2022/04/23 00:08:05;;;;;;;10.32;3.72;;;;;;;6.44;78.33;100646.69;2056994;28;20286;-62
2022/04/23 00:09:09;;;;;;;8.55;3.60;;;;;;;6.46;78.42;100654.44;2072118;28;20649;-63
2022/04/23 00:10:14;;;;;;;10.07;3.53;;;;;;;6.48;77.95;100647.00;2072232;28;20289;-63
2022/04/23 00:11:19;;;;;;;8.50;3.80;;;;;;;6.49;78.03;100645.94;2064512;28;20769;-62
2022/04/23 00:12:23;;;;;;;5.00;3.35;;;;;;;6.50;78.25;100642.22;2064806;28;20886;-64
2022/04/23 00:13:27;;;;;;;7.30;3.53;;;;;;;6.45;78.48;100647.50;2063770;28;20293;-62
2022/04/23 00:14:31;;;;;;;9.63;4.05;;;;;;;6.42;78.13;100639.97;2056801;28;20294;-63
2022/04/23 00:15:37;;;;;;;8.55;3.63;;;;;;;6.40;78.46;100634.91;2056909;28;20300;-63
2022/04/23 00:16:40;;;;;;;8.85;3.65;;;;;;;6.39;78.43;100638.59;2057740;28;20678;-62
2022/04/23 00:17:47;;;;;;;13.57;4.10;;;;;;;6.39;78.20;100640.47;2057249;28;20344;-63
2022/04/23 00:18:50;;;;;;;9.82;3.88;;;;;;;6.40;78.73;100644.75;2057040;28;20296;-63
2022/04/23 00:19:58;;;;;;;11.32;4.90;;;;;;;6.42;78.60;100639.97;2056767;28;20294;-62
2022/04/23 00:21:05;;;;;;;6.15;3.38;;;;;;;6.38;78.53;100636.19;2049654;28;20291;-61
2022/04/23 00:22:15;;;;;;;6.80;3.65;;;;;;;6.39;78.37;100635.13;2050492;28;20299;-62
2022/04/23 00:23:19;;;;;;;8.63;3.72;;;;;;;6.34;78.63;100635.09;2065860;28;20054;-62
2022/04/23 00:24:21;;;;;;;9.02;3.55;;;;;;;6.33;78.16;100625.44;2064494;28;20289;-63
2022/04/23 00:25:23;;;;;;;10.32;3.60;;;;;;;6.35;78.10;100629.50;2064304;28;20281;-62
2022/04/23 00:26:26;;;;;;;6.13;3.60;;;;;;;6.37;78.64;100624.72;2072601;28;20285;-62
2022/04/23 00:27:31;;;;;;;8.15;3.63;;;;;;;6.38;78.32;100634.34;2064277;28;20678;-61
2022/04/23 00:28:37;;;;;;;11.85;3.75;;;;;;;6.35;78.08;100637.50;2056372;28;20309;-62
2022/04/23 00:29:42;;;;;;;7.38;3.67;;;;;;;6.36;78.27;100631.09;2049285;28;20302;-61
2022/04/23 00:30:47;;;;;;;8.23;3.50;;;;;;;6.37;78.66;100634.56;2064124;28;20298;-61
2022/04/23 00:31:50;;;;;;;8.73;3.85;;;;;;;6.37;78.27;100626.56;2072093;28;20800;-63
2022/04/23 00:32:55;;;;;;;7.05;4.07;;;;;;;6.35;78.43;100637.50;2056272;28;20290;-62
2022/04/23 00:33:57;;;;;;;7.00;3.60;;;;;;;6.28;78.07;100622.72;2050531;28;20299;-62
2022/04/23 00:34:59;;;;;;;7.97;3.92;;;;;;;6.28;78.71;100625.41;2064241;28;20277;-63
2022/04/23 00:36:04;;;;;;;14.63;4.28;;;;;;;6.30;78.48;100616.06;2056153;28;20282;-63
2022/04/23 00:37:10;;;;;;;12.93;4.97;;;;;;;6.32;78.55;100621.16;2056451;28;20301;-63
2022/04/23 00:38:18;;;;;;;6.68;4.05;;;;;;;6.30;78.19;100624.06;2056500;28;20290;-62
2022/04/23 00:39:22;;;;;;;8.45;3.97;;;;;;;6.25;78.33;100622.16;2056418;28;20286;-63
2022/04/23 00:40:30;;;;;;;7.85;3.85;;;;;;;6.21;78.48;100626.38;2052980;28;20286;-62
2022/04/23 00:41:45;;;;;;;10.77;4.07;;;;;;;6.23;78.95;100626.13;2063762;28;20669;-63
2022/04/23 00:42:52;;;;;;;7.68;3.58;;;;;;;6.17;78.94;100624.44;2072130;28;20367;-62
2022/04/23 00:43:54;;;;;;;8.90;4.32;;;;;;;6.15;79.23;100621.22;2069403;28;20296;-62
2022/04/23 00:44:59;;;;;;;10.10;4.22;;;;;;;6.14;79.10;100624.94;2063899;28;20297;-61
2022/04/23 00:46:04;;;;;;;10.27;4.45;;;;;;;6.17;79.63;100621.78;2064186;28;20804;-61
2022/04/23 00:47:09;;;;;;;7.60;4.07;;;;;;;6.12;79.33;100627.06;2064763;28;20289;-62
2022/04/23 00:48:11;;;;;;;9.73;4.60;;;;;;;6.08;79.69;100624.06;2072087;28;20288;-62
2022/04/23 00:49:14;;;;;;;9.98;4.18;;;;;;;6.08;79.85;100624.06;2064468;28;20290;-64
2022/04/23 00:50:21;;;;;;;12.35;4.93;;;;;;;6.09;79.60;100623.03;2064409;28;20296;-63
2022/04/23 00:51:30;;;;;;;11.50;5.63;;;;;;;6.13;79.63;100618.78;2064828;28;20273;-62
2022/04/23 00:52:36;;;;;;;9.48;4.43;;;;;;;6.10;80.24;100621.16;2064949;28;20046;-63
2022/04/23 00:53:38;;;;;;;9.02;4.10;;;;;;;6.06;79.98;100623.50;2064244;28;20353;-63
2022/04/23 00:54:44;;;;;;;10.25;4.85;;;;;;;6.03;80.07;100616.81;2056786;28;20662;-62
2022/04/23 00:55:47;;;;;;;7.57;3.72;;;;;;;5.98;79.89;100619.38;2048897;28;20289;-62
2022/04/23 00:56:53;;;;;;;9.93;4.37;;;;;;;5.96;80.35;100624.19;2040602;29;20408;-62
2022/04/23 00:57:58;;;;;;;6.07;3.80;;;;;;;5.91;80.73;100620.59;2050345;28;20275;-62
2022/04/23 00:59:10;;;;;;;10.13;3.90;;;;;;;5.92;80.42;100624.88;2063101;28;20289;-63
2022/04/23 01:00:15;;;;;;;6.78;3.85;;;;;;;5.93;80.88;100615.88;2063891;28;20286;-62
2022/04/23 01:01:23;;;;;;;7.93;4.22;;;;;;;5.93;80.29;100626.53;2064016;28;20297;-62
2022/04/23 01:02:25;;;;;;;9.70;4.03;;;;;;;5.92;80.73;100616.88;2056286;28;20305;-63
2022/04/23 01:03:28;;;;;;;10.45;3.97;;;;;;;5.87;80.46;100614.16;2062286;28;20284;-62
2022/04/23 01:04:35;;;;;;;12.02;4.00;;;;;;;5.81;81.36;100624.75;2064319;28;20274;-62
2022/04/23 01:05:41;;;;;;;11.23;3.97;;;;;;;5.83;80.95;100621.81;2055590;28;20294;-62
2022/04/23 01:06:44;;;;;;;10.38;4.10;;;;;;;5.80;81.77;100628.47;2056681;28;20286;-61
2022/04/23 01:07:46;;;;;;;7.20;3.88;;;;;;;5.88;81.54;100618.44;2064312;28;20286;-63
2022/04/23 01:08:53;;;;;;;9.68;3.97;;;;;;;5.92;81.53;100616.88;2056777;28;20693;-63
2022/04/23 01:09:58;;;;;;;11.57;3.60;;;;;;;5.92;81.65;100622.22;2059450;28;20824;-64
2022/04/23 01:10:59;;;;;;;8.32;3.83;;;;;;;5.93;81.43;100619.34;2065784;28;20289;-63
2022/04/23 01:12:05;;;;;;;9.95;4.25;;;;;;;5.95;81.05;100619.06;2057694;28;20286;-62
2022/04/23 01:13:08;;;;;;;8.05;3.63;;;;;;;5.97;81.12;100620.44;2058452;28;20695;-62
2022/04/23 01:14:10;;;;;;;8.30;3.97;;;;;;;5.99;81.15;100617.53;2073137;28;20292;-62
2022/04/23 01:15:14;;;;;;;9.80;4.05;;;;;;;6.00;81.07;100619.16;2064843;28;20297;-62
2022/04/23 01:16:19;;;;;;;9.70;3.70;;;;;;;5.95;80.97;100614.53;2057582;28;20287;-62
2022/04/23 01:17:25;;;;;;;8.18;4.00;;;;;;;5.96;80.96;100615.38;2050574;28;20682;-62
2022/04/23 01:18:30;;;;;;;11.05;4.57;;;;;;;5.94;81.21;100610.28;2058224;28;20298;-62
2022/04/23 01:19:34;;;;;;;11.50;4.10;;;;;;;5.95;81.24;100616.41;2057706;28;20294;-62
2022/04/23 01:20:40;;;;;;;7.35;3.83;;;;;;;5.95;81.20;100608.41;2065736;28;20281;-62
2022/04/23 01:21:42;;;;;;;9.43;4.15;;;;;;;5.91;81.67;100610.72;2065628;28;20816;-62
2022/04/23 01:22:49;;;;;;;12.27;4.35;;;;;;;5.92;81.76;100609.66;2058214;28;20290;-62
2022/04/23 01:23:54;;;;;;;12.20;3.92;;;;;;;5.82;81.81;100607.66;2057931;28;20290;-62
2022/04/23 01:25:05;;;;;;;12.68;3.95;;;;;;;5.75;82.18;100604.38;2065064;28;20769;-62
2022/04/23 01:26:10;;;;;;;8.10;4.13;;;;;;;5.73;81.61;100611.00;2073725;28;20292;-62
2022/04/23 01:27:15;;;;;;;7.15;3.58;;;;;;;5.72;81.86;100610.19;2073863;28;20049;-62
2022/04/23 01:28:21;;;;;;;10.27;4.13;;;;;;;5.72;82.27;100596.06;2057245;28;20290;-62
2022/04/23 01:29:22;;;;;;;8.48;4.15;;;;;;;5.70;81.69;100609.63;2057716;28;20286;-61
2022/04/23 01:30:25;;;;;;;6.95;3.67;;;;;;;5.68;82.17;100606.41;2065445;28;20280;-63
2022/04/23 01:31:32;;;;;;;9.50;4.07;;;;;;;5.71;82.71;100597.91;2058131;28;20293;-62
2022/04/23 01:32:37;;;;;;;12.25;4.13;;;;;;;5.74;81.79;100601.97;2059506;28;20294;-63
2022/04/23 01:33:46;;;;;;;10.57;3.72;;;;;;;5.74;82.33;100600.09;2066820;28;20305;-62
2022/04/23 01:34:50;;;;;;;9.20;4.40;;;;;;;5.69;82.24;100600.03;2057864;28;20782;-62
2022/04/23 01:35:55;;;;;;;10.30;3.92;;;;;;;5.63;82.63;100602.84;2066495;28;20277;-63
2022/04/23 01:36:58;;;;;;;11.43;3.97;;;;;;;5.53;82.24;100603.50;2076432;28;20285;-63
2022/04/23 01:38:04;;;;;;;15.05;4.38;;;;;;;5.52;82.97;100602.72;2065675;28;20698;-62
2022/04/23 01:39:06;;;;;;;8.63;4.05;;;;;;;5.56;83.26;100605.69;2066405;28;20774;-62
2022/04/23 01:40:09;;;;;;;5.15;3.50;;;;;;;5.55;83.01;100593.41;2073151;28;20292;-62
2022/04/23 01:41:14;;;;;;;8.48;3.70;;;;;;;5.54;83.28;100589.13;2065628;28;21645;-62
2022/04/23 01:42:19;;;;;;;6.63;3.50;;;;;;;5.54;83.46;100594.44;2058481;28;20778;-62
2022/04/23 01:43:24;;;;;;;6.50;3.30;;;;;;;5.53;83.38;100592.84;2058658;28;20282;-61
2022/04/23 01:44:26;;;;;;;10.13;4.03;;;;;;;5.54;83.12;100595.25;2065521;28;20300;-62
2022/04/23 01:45:33;;;;;;;10.55;3.50;;;;;;;5.55;83.14;100594.22;2065575;28;20289;-62
2022/04/23 01:46:38;;;;;;;9.63;3.60;;;;;;;5.56;83.24;100593.16;2065616;28;20285;-62
2022/04/23 01:47:39;;;;;;;8.98;3.42;;;;;;;5.58;83.74;100590.28;2066166;28;20293;-62
2022/04/23 01:48:49;;;;;;;10.07;3.53;;;;;;;5.63;83.44;100589.53;2066178;28;20293;-61
2022/04/23 01:49:56;;;;;;;7.43;3.83;;;;;;;5.66;83.39;100589.84;2049377;28;20623;-63
2022/04/23 01:50:58;;;;;;;8.23;4.18;;;;;;;5.69;83.65;100585.88;2051380;28;20298;-63
2022/04/23 01:52:00;;;;;;;6.90;3.83;;;;;;;5.66;83.30;100584.50;2056816;28;20817;-61
2022/04/23 01:53:07;;;;;;;12.07;4.00;;;;;;;5.64;83.04;100583.94;2058076;28;20286;-63
2022/04/23 01:54:14;;;;;;;7.65;3.75;;;;;;;5.66;83.03;100586.38;2057366;28;21551;-63
2022/04/23 01:55:19;;;;;;;9.32;3.88;;;;;;;5.59;83.04;100586.53;2057413;28;20279;-63
2022/04/23 01:56:22;;;;;;;9.20;3.72;;;;;;;5.52;82.93;100580.56;2058201;28;20650;-63
2022/04/23 01:57:24;;;;;;;8.00;3.67;;;;;;;5.50;83.53;100585.34;2064977;28;20293;-63
2022/04/23 01:58:28;;;;;;;11.43;4.17;;;;;;;5.46;83.31;100577.03;2058329;28;20285;-63
2022/04/23 01:59:33;;;;;;;8.70;3.92;;;;;;;5.47;83.38;100580.47;2057188;28;20282;-62
2022/04/23 02:00:39;;;;;;;8.68;3.95;;;;;;;5.50;83.34;100588.00;2058071;28;20282;-62
2022/04/23 02:01:41;;;;;;;9.07;4.23;;;;;;;5.50;82.95;100582.66;2065496;28;20697;-62
2022/04/23 02:02:47;;;;;;;8.40;4.00;;;;;;;5.52;82.83;100586.72;2057198;28;20305;-63
2022/04/23 02:03:51;;;;;;;7.88;4.10;;;;;;;5.50;83.30;100580.00;2057308;28;20638;-64
2022/04/23 02:04:58;;;;;;;8.30;4.10;;;;;;;5.49;83.09;100579.19;2057123;28;20677;-64
2022/04/23 02:06:05;;;;;;;7.25;4.32;;;;;;;5.55;83.36;100574.75;2057419;28;20321;-64
2022/04/23 02:07:09;;;;;;;9.98;3.95;;;;;;;5.53;83.01;100572.31;2065438;28;20288;-63
2022/04/23 02:08:19;;;;;;;8.47;4.40;;;;;;;5.52;83.30;100580.56;2057445;28;20286;-63
2022/04/23 02:09:23;;;;;;;8.90;3.83;;;;;;;5.54;82.74;100581.91;2064551;28;20285;-62
2022/04/23 02:10:26;;;;;;;8.98;4.30;;;;;;;5.52;83.22;100575.25;2064943;28;20282;-62
2022/04/23 02:11:28;;;;;;;15.67;4.40;;;;;;;5.48;82.83;100576.75;2064682;28;20289;-62
2022/04/23 02:12:30;;;;;;;7.50;4.13;;;;;;;5.44;82.84;100580.97;2049305;29;20770;-62
2022/04/23 02:13:34;;;;;;;6.93;3.83;;;;;;;5.40;82.87;100578.00;2049466;28;20282;-62
2022/04/23 02:14:36;;;;;;;8.93;4.07;;;;;;;5.41;83.39;100581.47;2072804;28;20296;-62
2022/04/23 02:15:43;;;;;;;7.77;3.97;;;;;;;5.44;83.12;100578.31;2064843;28;20684;-63
2022/04/23 02:16:45;;;;;;;9.15;3.95;;;;;;;5.47;83.01;100577.81;2057907;28;20294;-63
2022/04/23 02:17:50;;;;;;;8.20;4.00;;;;;;;5.48;83.40;100579.44;2057707;28;20294;-63
2022/04/23 02:18:53;;;;;;;8.65;3.80;;;;;;;5.46;83.09;100574.34;2065151;28;20289;-64
2022/04/23 02:20:04;;;;;;;9.90;4.15;;;;;;;5.43;83.42;100582.03;2064841;28;20284;-63
2022/04/23 02:21:06;;;;;;;8.47;3.93;;;;;;;5.43;83.52;100571.38;2066342;28;20289;-63
2022/04/23 02:22:08;;;;;;;7.82;4.05;;;;;;;5.42;83.27;100580.41;2072958;28;20289;-63
2022/04/23 02:23:10;;;;;;;9.27;3.67;;;;;;;5.39;82.87;100576.38;2057261;28;20279;-63
2022/04/23 02:24:16;;;;;;;9.17;4.20;;;;;;;5.38;83.40;100573.94;2049560;28;20810;-63
2022/04/23 02:25:20;;;;;;;9.65;4.13;;;;;;;5.35;83.83;100573.38;2050920;28;20783;-63
2022/04/23 02:26:24;;;;;;;7.37;3.67;;;;;;;5.37;83.05;100578.47;2064215;28;20657;-62
2022/04/23 02:27:27;;;;;;;8.83;4.17;;;;;;;5.37;83.46;100570.47;2057195;28;20782;-62
2022/04/23 02:28:38;;;;;;;6.60;3.90;;;;;;;5.41;83.75;100566.25;2049529;28;20312;-62
2022/04/23 02:29:42;;;;;;;10.90;4.15;;;;;;;5.43;83.61;100568.69;2061646;28;20289;-62
2022/04/23 02:30:44;;;;;;;7.20;3.88;;;;;;;5.41;83.16;100573.47;2065706;28;20649;-62
2022/04/23 02:31:50;;;;;;;10.40;4.20;;;;;;;5.39;82.92;100575.56;2065364;28;20285;-62
2022/04/23 02:32:57;;;;;;;8.50;3.87;;;;;;;5.37;83.21;100572.34;2065248;28;20366;-62
2022/04/23 02:34:00;;;;;;;10.70;4.63;;;;;;;5.34;83.13;100571.75;2064979;28;20282;-62
2022/04/23 02:35:06;;;;;;;8.50;4.00;;;;;;;5.31;83.26;100566.13;2065690;28;20285;-62
2022/04/23 02:36:08;;;;;;;7.60;4.30;;;;;;;5.32;83.55;100565.84;2064723;28;20284;-63
2022/04/23 02:37:13;;;;;;;8.98;4.13;;;;;;;5.30;83.29;100567.19;2065097;28;20753;-63
2022/04/23 02:38:17;;;;;;;10.20;4.18;;;;;;;5.28;83.51;100558.59;2065197;28;20284;-63
2022/04/23 02:39:19;;;;;;;9.88;4.30;;;;;;;5.30;83.75;100565.31;2064448;28;20285;-63
2022/04/23 02:40:25;;;;;;;11.03;4.50;;;;;;;5.30;83.64;100567.97;2057753;28;20298;-62
2022/04/23 02:41:28;;;;;;;9.23;4.75;;;;;;;5.29;83.77;100561.00;2065097;28;20776;-63
2022/04/23 02:42:33;;;;;;;7.50;3.95;;;;;;;5.29;83.72;100558.34;2065698;28;20716;-63
2022/04/23 02:43:38;;;;;;;7.93;4.28;;;;;;;5.30;83.75;100562.66;2065547;28;20773;-63
2022/04/23 02:44:40;;;;;;;7.35;4.10;;;;;;;5.31;83.58;100553.59;2065560;28;20630;-63
2022/04/23 02:45:45;;;;;;;9.90;4.18;;;;;;;5.30;84.04;100557.31;2065018;28;20308;-63
2022/04/23 02:46:52;;;;;;;10.18;4.25;;;;;;;5.30;83.99;100546.66;2064931;28;20281;-63
2022/04/23 02:47:56;;;;;;;7.78;3.75;;;;;;;5.33;83.70;100545.38;2072437;28;20653;-63
2022/04/23 02:49:02;;;;;;;9.67;4.20;;;;;;;5.34;83.58;100550.44;2072417;28;20295;-63
2022/04/23 02:50:10;;;;;;;7.50;4.03;;;;;;;5.33;83.32;100546.16;2072102;28;20293;-62
2022/04/23 02:51:16;;;;;;;7.35;4.28;;;;;;;5.33;84.00;100546.16;2072059;28;20629;-63
2022/04/23 02:52:20;;;;;;;7.30;3.83;;;;;;;5.30;83.59;100554.66;2072217;28;20285;-63
2022/04/23 02:53:23;;;;;;;10.83;4.07;;;;;;;5.24;84.00;100558.28;2056978;28;20658;-63
2022/04/23 02:54:26;;;;;;;10.75;4.20;;;;;;;5.19;83.78;100552.88;2049131;28;20283;-63
2022/04/23 02:55:31;;;;;;;8.23;4.43;;;;;;;5.19;83.66;100554.72;2064995;28;20273;-63
2022/04/23 02:56:35;;;;;;;8.60;4.05;;;;;;;5.24;84.43;100554.81;2065891;28;20714;-63
2022/04/23 02:57:44;;;;;;;7.80;4.20;;;;;;;5.25;83.81;100556.41;2065213;28;20290;-62
2022/04/23 02:58:46;;;;;;;9.80;4.23;;;;;;;5.26;84.10;100564.16;2066524;28;20285;-62
2022/04/23 02:59:49;;;;;;;14.83;4.50;;;;;;;5.19;83.62;100560.84;2072790;28;20288;-62
2022/04/23 03:00:56;;;;;;;7.13;4.40;;;;;;;5.09;84.20;100555.38;2065818;28;20304;-63
2022/04/23 03:02:03;;;;;;;6.80;3.83;;;;;;;5.09;84.43;100550.84;2073290;28;20296;-63
2022/04/23 03:03:12;;;;;;;8.93;4.47;;;;;;;5.16;84.15;100555.22;2071544;28;20308;-62
2022/04/23 03:04:17;;;;;;;7.70;4.07;;;;;;;5.17;84.83;100560.31;2065505;28;20274;-63
2022/04/23 03:05:22;;;;;;;9.40;3.70;;;;;;;5.14;84.31;100557.31;2065006;28;20046;-63
2022/04/23 03:06:29;;;;;;;8.00;4.40;;;;;;;5.16;84.64;100550.69;2064336;28;20312;-63
2022/04/23 03:07:35;;;;;;;7.60;4.20;;;;;;;5.16;84.43;100550.69;2073127;28;20761;-62
2022/04/23 03:08:39;;;;;;;9.68;4.72;;;;;;;5.14;84.14;100547.47;2065007;28;20293;-63
2022/04/23 03:09:46;;;;;;;9.80;4.30;;;;;;;5.16;84.55;100544.53;2065662;28;20319;-62
2022/04/23 03:10:48;;;;;;;9.20;4.40;;;;;;;5.15;84.13;100538.41;2064951;28;20320;-62
2022/04/23 03:11:55;;;;;;;8.20;4.30;;;;;;;5.08;84.86;100537.78;2064979;28;20304;-63
2022/04/23 03:13:07;;;;;;;12.88;4.32;;;;;;;5.02;84.31;100536.06;2072744;28;20293;-63
2022/04/23 03:14:11;;;;;;;11.30;4.20;;;;;;;5.02;84.81;100528.88;2070635;28;20049;-63
2022/04/23 03:15:19;;;;;;;7.67;4.40;;;;;;;5.02;84.76;100533.41;2072144;28;20756;-62
2022/04/23 03:16:21;;;;;;;7.43;4.60;;;;;;;4.97;84.80;100536.78;2071567;28;20765;-62
2022/04/23 03:17:26;;;;;;;9.43;4.53;;;;;;;4.96;85.05;100534.38;2064807;28;20289;-62
2022/04/23 03:18:28;;;;;;;10.07;4.60;;;;;;;5.02;85.06;100528.09;2064835;28;20289;-62
2022/04/23 03:19:30;;;;;;;12.27;4.63;;;;;;;5.04;84.98;100523.31;2065346;28;20269;-62
2022/04/23 03:20:38;;;;;;;8.27;4.30;;;;;;;5.07;85.44;100530.81;2065429;28;20287;-63
2022/04/23 03:21:42;;;;;;;7.65;4.78;;;;;;;5.07;85.03;100533.47;2065618;28;20274;-63
2022/04/23 03:22:49;;;;;;;10.57;4.57;;;;;;;5.09;85.08;100528.72;2065528;28;20285;-63
2022/04/23 03:23:54;;;;;;;13.77;4.80;;;;;;;5.14;84.58;100542.13;2063705;28;20281;-64
2022/04/23 03:24:58;;;;;;;7.07;4.47;;;;;;;5.11;84.43;100539.97;2064807;28;20046;-63
2022/04/23 03:26:02;;;;;;;8.63;4.40;;;;;;;5.15;84.67;100540.28;2064115;28;20285;-62
2022/04/23 03:27:06;;;;;;;10.37;4.63;;;;;;;5.17;84.29;100535.50;2056249;28;20287;-63
2022/04/23 03:28:13;;;;;;;8.63;4.37;;;;;;;5.21;84.68;100542.78;2056663;28;20790;-62
2022/04/23 03:29:16;;;;;;;9.17;4.40;;;;;;;5.19;84.31;100536.88;2060822;28;20285;-62
2022/04/23 03:30:20;;;;;;;9.37;4.60;;;;;;;5.22;84.40;100536.38;2072786;28;20311;-63
2022/04/23 03:31:22;;;;;;;8.00;4.20;;;;;;;5.24;84.34;100531.63;2071531;28;20311;-62
2022/04/23 03:32:28;;;;;;;11.68;4.38;;;;;;;5.29;84.51;100539.69;2065520;28;20290;-63
2022/04/23 03:33:32;;;;;;;10.97;5.33;;;;;;;5.29;84.21;100539.69;2064487;28;20293;-62
2022/04/23 03:34:36;;;;;;;10.80;4.90;;;;;;;5.30;83.97;100540.50;2056962;28;20781;-61
2022/04/23 03:35:38;;;;;;;9.10;4.27;;;;;;;5.28;83.89;100538.06;2064719;28;20619;-62
2022/04/23 03:36:48;;;;;;;11.07;5.07;;;;;;;5.26;84.16;100531.38;2064691;28;20302;-64
2022/04/23 03:37:55;;;;;;;10.90;4.67;;;;;;;5.25;84.12;100529.75;2064549;28;20297;-63
2022/04/23 03:38:57;;;;;;;14.40;4.50;;;;;;;5.26;83.52;100534.84;2071936;28;20668;-63
2022/04/23 03:40:10;;;;;;;14.30;4.68;;;;;;;5.32;83.93;100535.72;2064444;28;20300;-62
2022/04/23 03:41:12;;;;;;;;;;;;;;;5.30;83.70;100538.66;2058129;28;20286;-62
2022/04/23 03:42:15;;;;;;;11.33;4.70;;;;;;;5.25;83.97;100535.09;2049102;28;19921;-63
2022/04/23 03:43:16;;;;;;;9.13;4.67;;;;;;;5.26;83.46;100534.03;2049033;28;20453;-63
2022/04/23 03:44:26;;;;;;;11.20;5.30;;;;;;;5.37;84.14;100538.47;2048451;28;20302;-63
2022/04/23 03:45:31;;;;;;;11.07;4.50;;;;;;;5.48;83.21;100531.44;2050894;28;20299;-63
2022/04/23 03:46:36;;;;;;;11.13;4.90;;;;;;;5.60;83.89;100532.13;2064523;28;20030;-61
2022/04/23 03:47:44;;;;;;;13.50;4.80;;;;;;;5.72;83.01;100532.84;2057614;28;20289;-62
2022/04/23 03:48:47;;;;;;;8.93;4.80;;;;;;;5.77;83.09;100527.56;2057475;28;20290;-62
2022/04/23 03:49:52;;;;;;;11.07;5.07;;;;;;;5.94;82.86;100529.41;2064941;28;20301;-62
2022/04/23 03:50:57;;;;;;;12.17;4.90;;;;;;;6.08;82.67;100532.50;2064496;28;20289;-62
2022/04/23 03:52:00;;;;;;;10.60;4.80;;;;;;;6.09;81.64;100534.94;2064272;28;20293;-63
2022/04/23 03:53:03;;;;;;;9.00;4.38;;;;;;;6.24;81.81;100543.13;2065327;28;20312;-63
2022/04/23 03:54:06;;;;;;;9.02;4.50;;;;;;;6.30;81.17;100543.97;2065336;28;20827;-63
2022/04/23 03:55:09;;;;;;;14.88;4.40;;;;;;;6.32;80.77;100535.72;2064476;28;20629;-63
2022/04/23 03:56:10;;;;;;;11.27;4.57;;;;;;;6.47;80.34;100533.22;2064641;28;20286;-61
2022/04/23 03:57:13;;;;;;;10.80;4.18;;;;;;;6.64;80.01;100533.91;2064130;28;20397;-63
2022/04/23 03:58:15;;;;;;;7.82;4.40;;;;;;;6.76;79.70;100531.09;2048555;28;20291;-62
2022/04/23 03:59:23;;;;;;;10.93;4.20;;;;;;;6.89;79.27;100544.03;2057595;28;20306;-62
2022/04/23 04:00:30;;;;;;;7.70;3.80;;;;;;;7.08;78.90;100543.66;2064493;28;20389;-62
2022/04/23 04:01:34;;;;;;;7.10;3.83;;;;;;;7.29;77.88;100537.38;2064540;28;20277;-62
2022/04/23 04:02:38;;;;;;;10.32;4.30;;;;;;;7.34;77.40;100540.09;2064284;28;20281;-62
2022/04/23 04:03:44;;;;;;;7.65;3.72;;;;;;;7.42;76.61;100544.97;2065229;28;20293;-62
2022/04/23 04:04:47;;;;;;;6.78;4.03;;;;;;;7.47;76.40;100541.53;2064495;28;20289;-62
2022/04/23 04:05:52;;;;;;;10.52;3.97;;;;;;;7.55;75.96;100540.22;2057238;28;20289;-62
2022/04/23 04:06:54;;;;;;;11.07;3.88;;;;;;;7.65;75.92;100538.41;2064625;28;20288;-62
2022/04/23 04:07:56;;;;;;;6.80;3.70;;;;;;;7.89;75.93;100538.00;2064458;28;20296;-63
2022/04/23 04:08:59;;;;;;;5.68;3.85;;;;;;;8.21;75.30;100535.19;2056386;28;20796;-63
2022/04/23 04:10:02;;;;;;;7.30;3.97;;;;;;;8.39;73.91;100528.56;2048150;28;20771;-64
2022/04/23 04:11:08;;;;;;;8.27;4.00;;;;;;;8.63;73.75;100536.09;2064604;28;20355;-63
2022/04/23 04:12:11;;;;;;;7.35;3.42;;;;;;;8.86;72.78;100529.41;2065126;28;20296;-63
2022/04/23 04:13:20;;;;;;;7.97;3.78;;;;;;;8.95;71.51;100533.19;2063887;28;20282;-64
2022/04/23 04:14:22;;;;;;;11.02;4.18;;;;;;;9.02;70.81;100536.44;2056899;28;20058;-63
2022/04/23 04:15:26;;;;;;;8.00;3.97;;;;;;;9.08;69.83;100531.84;2056453;28;20293;-64
2022/04/23 04:16:29;;;;;;;7.50;3.80;;;;;;;9.24;69.86;100538.81;2063947;28;20285;-63
2022/04/23 04:17:35;;;;;;;6.53;3.95;;;;;;;9.39;69.40;100530.72;2064374;28;20634;-63
2022/04/23 04:18:41;;;;;;;8.07;4.30;;;;;;;9.44;68.75;100532.63;2063029;28;20278;-63
2022/04/23 04:19:43;;;;;;;7.18;3.17;;;;;;;9.63;68.60;100535.53;2056210;28;20287;-63
2022/04/23 04:20:49;;;;;;;9.10;3.63;;;;;;;9.87;67.86;100523.13;2048721;28;20678;-64
2022/04/23 04:21:52;;;;;;;9.63;3.10;;;;;;;10.03;67.75;100523.06;2056480;28;20290;-63
2022/04/23 04:22:55;;;;;;;9.13;3.88;;;;;;;10.32;66.67;100523.19;2056880;28;20293;-63
2022/04/23 04:24:00;;;;;;;7.57;3.70;;;;;;;10.47;65.21;100519.63;2056317;28;20694;-64
2022/04/23 04:25:03;;;;;;;5.78;3.70;;;;;;;10.60;64.66;100519.00;2056527;28;20293;-63
2022/04/23 04:26:08;;;;;;;7.65;4.05;;;;;;;10.62;64.80;100511.44;2064448;28;20478;-64
2022/04/23 04:27:18;;;;;;;6.32;3.55;;;;;;;10.39;63.95;100518.31;2063969;28;20058;-63
2022/04/23 04:28:20;;;;;;;5.30;3.60;;;;;;;10.58;64.37;100518.47;2064130;28;20050;-62
2022/04/23 04:29:25;;;;;;;9.40;3.90;;;;;;;10.76;64.35;100515.13;2064243;28;20517;-62
2022/04/23 04:31:47;;;;;;;7.18;3.40;;;;;;;11.15;63.73;100508.88;2049036;28;20047;-63
2022/04/23 04:31:51;;;;;;;6.68;3.47;;;;;;;11.34;62.23;100517.03;2058933;28;20051;-64
2022/04/23 04:32:57;;;;;;;6.43;3.45;;;;;;;11.20;61.70;100510.72;2058599;28;20058;-62
2022/04/23 04:34:01;;;;;;;6.72;3.70;;;;;;;11.28;61.92;100518.97;2057205;28;20061;-63
2022/04/23 04:35:08;;;;;;;7.90;3.60;;;;;;;11.71;61.68;100513.69;2063650;28;20105;-62
2022/04/23 04:36:13;;;;;;;7.13;3.35;;;;;;;11.99;60.52;100512.03;2064995;28;20054;-62
2022/04/23 04:37:22;;;;;;;8.07;3.63;;;;;;;12.14;59.82;100515.63;2064145;28;20050;-62
2022/04/23 04:38:24;;;;;;;7.72;3.47;;;;;;;12.40;59.52;100516.06;2065563;28;20422;-63
2022/04/23 04:39:31;;;;;;;6.95;3.95;;;;;;;12.69;58.56;100507.81;2064305;28;20502;-63
2022/04/23 04:40:34;;;;;;;16.88;4.75;;;;;;;12.92;57.90;100517.69;2063508;28;20046;-66
2022/04/23 04:41:36;;;;;;;5.43;3.33;;;;;;;13.29;57.70;100509.81;2064490;28;20039;-62
2022/04/23 04:42:38;;;;;;;11.82;4.22;;;;;;;13.14;56.25;100510.84;2064448;28;20497;-62
2022/04/23 04:43:44;;;;;;;15.07;4.47;;;;;;;13.21;56.07;100514.78;2065279;28;20051;-63
2022/04/23 04:44:47;;;;;;;10.32;3.83;;;;;;;13.04;55.83;100509.13;2066027;28;20042;-62
2022/04/23 04:45:49;;;;;;;8.23;3.90;;;;;;;13.25;56.28;100506.13;2058016;28;20042;-63
2022/04/23 04:46:55;;;;;;;9.65;3.50;;;;;;;13.57;55.61;100505.25;2051594;28;20454;-63
2022/04/23 04:48:00;;;;;;;8.43;3.72;;;;;;;13.70;54.96;100498.25;2059024;28;20034;-62
2022/04/23 04:49:07;;;;;;;7.93;3.08;;;;;;;13.68;54.92;100502.06;2065685;28;20517;-63
2022/04/23 04:50:13;;;;;;;8.18;3.45;;;;;;;14.00;54.45;100500.34;2073040;28;20041;-63
2022/04/23 04:51:20;;;;;;;5.72;3.03;;;;;;;14.33;53.83;100500.97;2074197;28;20030;-63
2022/04/23 04:52:25;;;;;;;9.65;4.05;;;;;;;14.47;52.58;100500.09;2072496;28;20464;-63
2022/04/23 04:53:29;;;;;;;6.20;3.33;;;;;;;14.64;52.40;100494.09;2066065;28;20493;-63
2022/04/23 04:54:32;;;;;;;8.07;3.50;;;;;;;14.70;51.60;100500.97;2065930;28;20042;-64
2022/04/23 04:55:40;;;;;;;8.40;4.05;;;;;;;14.58;51.58;100490.69;2065238;28;20473;-62
2022/04/23 04:56:43;;;;;;;5.93;3.55;;;;;;;14.67;51.64;100494.25;2051080;28;20443;-62
2022/04/23 04:57:49;;;;;;;7.25;3.30;;;;;;;14.91;51.08;100488.53;2065025;28;20050;-62
2022/04/23 04:58:54;;;;;;;8.68;3.58;;;;;;;14.84;50.75;100490.88;2056075;28;20070;-64
2022/04/23 04:59:57;;;;;;;9.20;3.45;;;;;;;14.71;51.22;100497.16;2055901;28;20283;-63
2022/04/23 05:00:58;;;;;;;6.63;3.60;;;;;;;14.80;50.76;100490.69;2048059;28;20047;-63
2022/04/23 05:02:04;;;;;;;7.68;3.78;;;;;;;15.03;51.16;100496.88;2055683;28;20111;-63
2022/04/23 05:03:10;;;;;;;7.22;3.45;;;;;;;15.13;50.31;100495.03;2076024;28;20057;-63